sensor_id;sensor_type;location;lat;lon;timestamp;temperature;humidity
63013;DHT22;62113;45.624;11.700;2023-03-23T00:00:59;16.10;54.60
63013;DHT22;62113;45.624;11.700;2023-03-23T00:03:26;16.10;54.60
63013;DHT22;62113;45.624;11.700;2023-03-23T00:05:54;16.10;54.60
63013;DHT22;62113;45.624;11.700;2023-03-23T00:08:28;16.10;54.70
63013;DHT22;62113;45.624;11.700;2023-03-23T00:10:53;16.00;54.80
63013;DHT22;62113;45.624;11.700;2023-03-23T00:13:24;16.00;54.90
63013;DHT22;62113;45.624;11.700;2023-03-23T00:15:50;16.00;54.90
63013;DHT22;62113;45.624;11.700;2023-03-23T00:18:20;15.90;55.00
63013;DHT22;62113;45.624;11.700;2023-03-23T00:20:47;15.80;55.10
63013;DHT22;62113;45.624;11.700;2023-03-23T00:23:15;15.80;55.10
63013;DHT22;62113;45.624;11.700;2023-03-23T00:25:45;15.80;55.20
63013;DHT22;62113;45.624;11.700;2023-03-23T00:28:11;15.70;55.30
63013;DHT22;62113;45.624;11.700;2023-03-23T00:30:38;15.70;55.30
63013;DHT22;62113;45.624;11.700;2023-03-23T00:33:04;15.70;55.30
63013;DHT22;62113;45.624;11.700;2023-03-23T00:35:30;15.70;55.40
63013;DHT22;62113;45.624;11.700;2023-03-23T00:37:56;15.60;55.40
63013;DHT22;62113;45.624;11.700;2023-03-23T00:40:24;15.60;55.50
63013;DHT22;62113;45.624;11.700;2023-03-23T00:42:50;15.60;55.50
63013;DHT22;62113;45.624;11.700;2023-03-23T00:45:15;15.60;55.50
63013;DHT22;62113;45.624;11.700;2023-03-23T00:47:41;15.60;55.60
63013;DHT22;62113;45.624;11.700;2023-03-23T00:50:12;15.50;55.60
63013;DHT22;62113;45.624;11.700;2023-03-23T00:52:40;15.50;55.70
63013;DHT22;62113;45.624;11.700;2023-03-23T00:55:06;15.40;55.70
63013;DHT22;62113;45.624;11.700;2023-03-23T00:57:32;15.40;55.80
63013;DHT22;62113;45.624;11.700;2023-03-23T00:59:58;15.40;55.90
63013;DHT22;62113;45.624;11.700;2023-03-23T01:02:23;15.40;55.90
63013;DHT22;62113;45.624;11.700;2023-03-23T01:04:52;15.40;55.90
63013;DHT22;62113;45.624;11.700;2023-03-23T01:07:21;15.40;56.00
63013;DHT22;62113;45.624;11.700;2023-03-23T01:09:48;15.40;56.00
63013;DHT22;62113;45.624;11.700;2023-03-23T01:12:14;15.30;56.10
63013;DHT22;62113;45.624;11.700;2023-03-23T01:14:41;15.30;56.10
63013;DHT22;62113;45.624;11.700;2023-03-23T01:17:07;15.30;56.20
63013;DHT22;62113;45.624;11.700;2023-03-23T01:19:32;15.30;56.20
63013;DHT22;62113;45.624;11.700;2023-03-23T01:21:58;15.30;56.20
63013;DHT22;62113;45.624;11.700;2023-03-23T01:24:24;15.30;56.30
63013;DHT22;62113;45.624;11.700;2023-03-23T01:26:49;15.20;56.20
63013;DHT22;62113;45.624;11.700;2023-03-23T01:29:15;15.20;56.20
63013;DHT22;62113;45.624;11.700;2023-03-23T01:31:41;15.20;56.30
63013;DHT22;62113;45.624;11.700;2023-03-23T01:34:08;15.20;56.40
63013;DHT22;62113;45.624;11.700;2023-03-23T01:36:34;15.10;56.40
63013;DHT22;62113;45.624;11.700;2023-03-23T01:39:01;15.20;56.40
63013;DHT22;62113;45.624;11.700;2023-03-23T01:41:29;15.10;56.40
63013;DHT22;62113;45.624;11.700;2023-03-23T01:46:41;15.10;56.50
63013;DHT22;62113;45.624;11.700;2023-03-23T01:49:28;15.10;56.50
63013;DHT22;62113;45.624;11.700;2023-03-23T01:52:08;15.10;56.60
63013;DHT22;62113;45.624;11.700;2023-03-23T01:54:35;15.10;56.60
63013;DHT22;62113;45.624;11.700;2023-03-23T01:57:13;15.00;56.70
63013;DHT22;62113;45.624;11.700;2023-03-23T01:59:41;15.00;56.80
63013;DHT22;62113;45.624;11.700;2023-03-23T02:02:08;15.00;56.90
63013;DHT22;62113;45.624;11.700;2023-03-23T02:04:36;15.00;56.90
63013;DHT22;62113;45.624;11.700;2023-03-23T02:07:03;15.00;56.90
63013;DHT22;62113;45.624;11.700;2023-03-23T02:09:29;14.90;57.00
63013;DHT22;62113;45.624;11.700;2023-03-23T02:11:56;14.80;57.00
63013;DHT22;62113;45.624;11.700;2023-03-23T02:14:24;14.80;57.00
63013;DHT22;62113;45.624;11.700;2023-03-23T02:25:21;14.70;57.10
63013;DHT22;62113;45.624;11.700;2023-03-23T02:30:39;14.70;57.30
63013;DHT22;62113;45.624;11.700;2023-03-23T02:36:22;14.70;57.50
63013;DHT22;62113;45.624;11.700;2023-03-23T02:38:59;14.70;57.40
63013;DHT22;62113;45.624;11.700;2023-03-23T02:41:30;14.70;57.50
63013;DHT22;62113;45.624;11.700;2023-03-23T02:43:57;14.60;57.50
63013;DHT22;62113;45.624;11.700;2023-03-23T02:46:24;14.60;57.60
63013;DHT22;62113;45.624;11.700;2023-03-23T02:48:50;14.60;57.70
63013;DHT22;62113;45.624;11.700;2023-03-23T02:51:19;14.60;57.80
63013;DHT22;62113;45.624;11.700;2023-03-23T02:53:47;14.60;57.70
63013;DHT22;62113;45.624;11.700;2023-03-23T02:56:14;14.60;57.70
63013;DHT22;62113;45.624;11.700;2023-03-23T02:58:41;14.50;57.70
63013;DHT22;62113;45.624;11.700;2023-03-23T03:04:03;14.50;57.70
63013;DHT22;62113;45.624;11.700;2023-03-23T03:09:11;14.40;57.70
63013;DHT22;62113;45.624;11.700;2023-03-23T03:11:45;14.30;57.70
63013;DHT22;62113;45.624;11.700;2023-03-23T03:14:22;14.30;57.80
63013;DHT22;62113;45.624;11.700;2023-03-23T03:16:52;14.30;57.80
63013;DHT22;62113;45.624;11.700;2023-03-23T03:19:31;14.20;58.00
63013;DHT22;62113;45.624;11.700;2023-03-23T03:21:59;14.20;58.00
63013;DHT22;62113;45.624;11.700;2023-03-23T03:24:28;14.10;58.10
63013;DHT22;62113;45.624;11.700;2023-03-23T03:26:55;14.20;58.20
63013;DHT22;62113;45.624;11.700;2023-03-23T03:29:28;14.20;58.30
63013;DHT22;62113;45.624;11.700;2023-03-23T03:31:56;14.20;58.30
63013;DHT22;62113;45.624;11.700;2023-03-23T03:34:24;14.20;58.40
63013;DHT22;62113;45.624;11.700;2023-03-23T03:36:52;14.10;58.40
63013;DHT22;62113;45.624;11.700;2023-03-23T03:39:19;14.20;58.40
63013;DHT22;62113;45.624;11.700;2023-03-23T03:41:46;14.20;58.50
63013;DHT22;62113;45.624;11.700;2023-03-23T03:44:12;14.20;58.40
63013;DHT22;62113;45.624;11.700;2023-03-23T03:46:38;14.10;58.40
63013;DHT22;62113;45.624;11.700;2023-03-23T03:49:07;14.10;58.40
63013;DHT22;62113;45.624;11.700;2023-03-23T03:51:34;14.10;58.40
63013;DHT22;62113;45.624;11.700;2023-03-23T03:54:00;14.00;58.40
63013;DHT22;62113;45.624;11.700;2023-03-23T03:56:26;14.10;58.40
63013;DHT22;62113;45.624;11.700;2023-03-23T03:58:52;14.10;58.40
63013;DHT22;62113;45.624;11.700;2023-03-23T04:01:20;14.00;58.40
63013;DHT22;62113;45.624;11.700;2023-03-23T04:03:50;14.00;58.40
63013;DHT22;62113;45.624;11.700;2023-03-23T04:06:16;14.00;58.50
63013;DHT22;62113;45.624;11.700;2023-03-23T04:08:42;14.00;58.80
63013;DHT22;62113;45.624;11.700;2023-03-23T04:11:11;13.90;58.60
63013;DHT22;62113;45.624;11.700;2023-03-23T04:13:38;13.90;58.70
63013;DHT22;62113;45.624;11.700;2023-03-23T04:16:04;13.80;58.80
63013;DHT22;62113;45.624;11.700;2023-03-23T04:18:30;13.80;58.90
63013;DHT22;62113;45.624;11.700;2023-03-23T04:20:58;13.80;59.00
63013;DHT22;62113;45.624;11.700;2023-03-23T04:23:26;13.80;59.00
63013;DHT22;62113;45.624;11.700;2023-03-23T04:25:51;13.80;59.10
63013;DHT22;62113;45.624;11.700;2023-03-23T04:28:19;13.80;59.00
63013;DHT22;62113;45.624;11.700;2023-03-23T04:30:50;13.80;59.00
63013;DHT22;62113;45.624;11.700;2023-03-23T04:33:19;13.80;58.90
63013;DHT22;62113;45.624;11.700;2023-03-23T04:35:45;13.80;59.00
63013;DHT22;62113;45.624;11.700;2023-03-23T04:38:14;13.80;59.00
63013;DHT22;62113;45.624;11.700;2023-03-23T04:40:42;13.80;59.00
63013;DHT22;62113;45.624;11.700;2023-03-23T04:43:08;13.80;58.90
63013;DHT22;62113;45.624;11.700;2023-03-23T04:45:35;13.80;58.90
63013;DHT22;62113;45.624;11.700;2023-03-23T04:48:04;13.80;58.90
63013;DHT22;62113;45.624;11.700;2023-03-23T04:50:31;13.80;59.00
63013;DHT22;62113;45.624;11.700;2023-03-23T04:52:59;13.80;58.90
63013;DHT22;62113;45.624;11.700;2023-03-23T04:55:30;13.80;59.00
63013;DHT22;62113;45.624;11.700;2023-03-23T04:57:56;13.80;59.00
63013;DHT22;62113;45.624;11.700;2023-03-23T05:00:25;13.90;59.00
63013;DHT22;62113;45.624;11.700;2023-03-23T05:02:51;13.80;59.00
63013;DHT22;62113;45.624;11.700;2023-03-23T05:05:18;13.80;59.00
63013;DHT22;62113;45.624;11.700;2023-03-23T05:07:43;13.80;58.90
63013;DHT22;62113;45.624;11.700;2023-03-23T05:10:12;13.80;58.90
63013;DHT22;62113;45.624;11.700;2023-03-23T05:12:38;13.80;58.80
63013;DHT22;62113;45.624;11.700;2023-03-23T05:15:05;13.70;58.80
63013;DHT22;62113;45.624;11.700;2023-03-23T05:17:32;13.70;59.00
63013;DHT22;62113;45.624;11.700;2023-03-23T05:19:59;13.70;59.00
63013;DHT22;62113;45.624;11.700;2023-03-23T05:22:27;13.70;59.00
63013;DHT22;62113;45.624;11.700;2023-03-23T05:24:53;13.70;59.10
63013;DHT22;62113;45.624;11.700;2023-03-23T05:27:19;13.80;59.10
63013;DHT22;62113;45.624;11.700;2023-03-23T05:29:46;13.70;59.10
63013;DHT22;62113;45.624;11.700;2023-03-23T05:32:15;13.70;59.20
63013;DHT22;62113;45.624;11.700;2023-03-23T05:34:41;13.80;59.30
63013;DHT22;62113;45.624;11.700;2023-03-23T05:37:08;13.80;59.30
63013;DHT22;62113;45.624;11.700;2023-03-23T05:39:35;13.90;59.30
63013;DHT22;62113;45.624;11.700;2023-03-23T05:42:02;13.90;59.30
63013;DHT22;62113;45.624;11.700;2023-03-23T05:44:28;14.00;59.30
63013;DHT22;62113;45.624;11.700;2023-03-23T05:46:54;14.00;59.20
63013;DHT22;62113;45.624;11.700;2023-03-23T05:49:20;14.10;59.10
63013;DHT22;62113;45.624;11.700;2023-03-23T05:51:46;14.10;58.90
63013;DHT22;62113;45.624;11.700;2023-03-23T05:54:13;14.10;58.70
63013;DHT22;62113;45.624;11.700;2023-03-23T05:56:39;14.20;58.60
63013;DHT22;62113;45.624;11.700;2023-03-23T05:59:05;14.20;58.60
63013;DHT22;62113;45.624;11.700;2023-03-23T06:01:31;14.20;58.40
63013;DHT22;62113;45.624;11.700;2023-03-23T06:03:58;14.30;58.40
63013;DHT22;62113;45.624;11.700;2023-03-23T06:06:28;14.40;58.40
63013;DHT22;62113;45.624;11.700;2023-03-23T06:08:55;14.40;58.30
63013;DHT22;62113;45.624;11.700;2023-03-23T06:11:22;14.50;58.50
63013;DHT22;62113;45.624;11.700;2023-03-23T06:13:48;14.60;58.30
63013;DHT22;62113;45.624;11.700;2023-03-23T06:16:14;14.70;58.20
63013;DHT22;62113;45.624;11.700;2023-03-23T06:18:40;14.80;58.00
63013;DHT22;62113;45.624;11.700;2023-03-23T06:21:06;14.90;57.80
63013;DHT22;62113;45.624;11.700;2023-03-23T06:23:33;15.10;57.70
63013;DHT22;62113;45.624;11.700;2023-03-23T06:26:02;15.30;57.60
63013;DHT22;62113;45.624;11.700;2023-03-23T06:28:29;15.50;57.10
63013;DHT22;62113;45.624;11.700;2023-03-23T06:30:55;15.70;56.70
63013;DHT22;62113;45.624;11.700;2023-03-23T06:33:21;15.90;56.40
63013;DHT22;62113;45.624;11.700;2023-03-23T06:35:47;16.10;56.20
63013;DHT22;62113;45.624;11.700;2023-03-23T06:38:14;16.20;55.70
63013;DHT22;62113;45.624;11.700;2023-03-23T06:40:40;16.30;55.70
63013;DHT22;62113;45.624;11.700;2023-03-23T06:43:06;16.50;55.20
63013;DHT22;62113;45.624;11.700;2023-03-23T06:45:32;16.70;55.00
63013;DHT22;62113;45.624;11.700;2023-03-23T06:47:58;16.80;54.60
63013;DHT22;62113;45.624;11.700;2023-03-23T06:50:23;17.00;54.50
63013;DHT22;62113;45.624;11.700;2023-03-23T06:52:50;17.20;54.20
63013;DHT22;62113;45.624;11.700;2023-03-23T06:55:17;17.30;54.10
63013;DHT22;62113;45.624;11.700;2023-03-23T06:57:43;17.70;54.00
63013;DHT22;62113;45.624;11.700;2023-03-23T07:00:10;17.90;53.50
63013;DHT22;62113;45.624;11.700;2023-03-23T07:02:38;18.20;53.00
63013;DHT22;62113;45.624;11.700;2023-03-23T07:05:04;18.20;52.50
63013;DHT22;62113;45.624;11.700;2023-03-23T07:07:30;18.20;52.30
63013;DHT22;62113;45.624;11.700;2023-03-23T07:09:56;18.30;52.00
63013;DHT22;62113;45.624;11.700;2023-03-23T07:12:22;18.30;51.90
63013;DHT22;62113;45.624;11.700;2023-03-23T07:14:48;18.40;52.10
63013;DHT22;62113;45.624;11.700;2023-03-23T07:17:13;18.70;52.60
63013;DHT22;62113;45.624;11.700;2023-03-23T07:19:39;19.50;52.40
63013;DHT22;62113;45.624;11.700;2023-03-23T07:22:07;20.60;50.30
63013;DHT22;62113;45.624;11.700;2023-03-23T07:24:34;21.70;49.70
63013;DHT22;62113;45.624;11.700;2023-03-23T07:27:00;22.70;45.80
63013;DHT22;62113;45.624;11.700;2023-03-23T07:29:25;23.20;45.60
63013;DHT22;62113;45.624;11.700;2023-03-23T07:31:53;23.50;43.70
63013;DHT22;62113;45.624;11.700;2023-03-23T07:34:19;23.40;43.40
63013;DHT22;62113;45.624;11.700;2023-03-23T07:36:45;23.20;42.80
63013;DHT22;62113;45.624;11.700;2023-03-23T07:39:11;22.80;43.30
63013;DHT22;62113;45.624;11.700;2023-03-23T07:41:37;22.40;43.70
63013;DHT22;62113;45.624;11.700;2023-03-23T07:44:04;22.10;44.20
63013;DHT22;62113;45.624;11.700;2023-03-23T07:46:29;22.00;44.80
63013;DHT22;62113;45.624;11.700;2023-03-23T07:48:55;22.10;45.00
63013;DHT22;62113;45.624;11.700;2023-03-23T07:51:22;22.20;45.10
63013;DHT22;62113;45.624;11.700;2023-03-23T07:53:48;22.30;44.50
63013;DHT22;62113;45.624;11.700;2023-03-23T07:56:15;22.40;44.10
63013;DHT22;62113;45.624;11.700;2023-03-23T07:58:47;22.30;44.00
63013;DHT22;62113;45.624;11.700;2023-03-23T08:01:12;22.10;44.00
63013;DHT22;62113;45.624;11.700;2023-03-23T08:03:39;21.70;44.30
63013;DHT22;62113;45.624;11.700;2023-03-23T08:06:05;21.50;44.70
63013;DHT22;62113;45.624;11.700;2023-03-23T08:08:31;21.30;45.30
63013;DHT22;62113;45.624;11.700;2023-03-23T08:10:57;21.10;45.90
63013;DHT22;62113;45.624;11.700;2023-03-23T08:13:23;20.80;46.30
63013;DHT22;62113;45.624;11.700;2023-03-23T08:15:48;20.60;46.90
63013;DHT22;62113;45.624;11.700;2023-03-23T08:18:15;20.40;47.30
63013;DHT22;62113;45.624;11.700;2023-03-23T08:20:40;20.10;47.80
63013;DHT22;62113;45.624;11.700;2023-03-23T08:23:07;20.10;48.50
63013;DHT22;62113;45.624;11.700;2023-03-23T08:25:33;20.60;48.90
63013;DHT22;62113;45.624;11.700;2023-03-23T08:27:59;21.20;47.20
63013;DHT22;62113;45.624;11.700;2023-03-23T08:30:27;21.90;46.10
63013;DHT22;62113;45.624;11.700;2023-03-23T08:32:56;22.10;45.00
63013;DHT22;62113;45.624;11.700;2023-03-23T08:35:22;22.20;44.50
63013;DHT22;62113;45.624;11.700;2023-03-23T08:37:49;22.10;44.60
63013;DHT22;62113;45.624;11.700;2023-03-23T08:40:17;21.90;44.30
63013;DHT22;62113;45.624;11.700;2023-03-23T08:42:45;21.50;44.50
63013;DHT22;62113;45.624;11.700;2023-03-23T08:45:13;21.10;44.90
63013;DHT22;62113;45.624;11.700;2023-03-23T08:47:40;20.60;45.90
63013;DHT22;62113;45.624;11.700;2023-03-23T08:50:07;20.30;46.50
63013;DHT22;62113;45.624;11.700;2023-03-23T08:52:34;20.30;47.30
63013;DHT22;62113;45.624;11.700;2023-03-23T08:54:59;20.40;47.40
63013;DHT22;62113;45.624;11.700;2023-03-23T08:57:25;20.60;47.30
63013;DHT22;62113;45.624;11.700;2023-03-23T08:59:52;21.00;47.10
63013;DHT22;62113;45.624;11.700;2023-03-23T09:02:20;21.40;46.00
63013;DHT22;62113;45.624;11.700;2023-03-23T09:04:46;22.20;44.50
63013;DHT22;62113;45.624;11.700;2023-03-23T09:07:12;23.20;43.30
63013;DHT22;62113;45.624;11.700;2023-03-23T09:09:40;24.00;41.70
63013;DHT22;62113;45.624;11.700;2023-03-23T09:12:09;24.20;40.40
63013;DHT22;62113;45.624;11.700;2023-03-23T09:14:36;24.30;40.80
63013;DHT22;62113;45.624;11.700;2023-03-23T09:17:02;24.50;40.90
63013;DHT22;62113;45.624;11.700;2023-03-23T09:19:29;24.60;40.50
63013;DHT22;62113;45.624;11.700;2023-03-23T09:21:55;24.70;40.20
63013;DHT22;62113;45.624;11.700;2023-03-23T09:24:20;24.60;40.10
63013;DHT22;62113;45.624;11.700;2023-03-23T09:26:46;24.30;39.40
63013;DHT22;62113;45.624;11.700;2023-03-23T09:29:12;24.00;39.70
63013;DHT22;62113;45.624;11.700;2023-03-23T09:31:39;23.70;40.30
63013;DHT22;62113;45.624;11.700;2023-03-23T09:34:07;23.30;40.60
63013;DHT22;62113;45.624;11.700;2023-03-23T09:36:38;23.00;41.00
63013;DHT22;62113;45.624;11.700;2023-03-23T09:39:05;23.00;41.60
63013;DHT22;62113;45.624;11.700;2023-03-23T09:47:56;23.50;41.20
63013;DHT22;62113;45.624;11.700;2023-03-23T09:50:28;23.70;40.00
63013;DHT22;62113;45.624;11.700;2023-03-23T09:53:24;23.80;40.00
63013;DHT22;62113;45.624;11.700;2023-03-23T09:55:52;23.80;40.40
63013;DHT22;62113;45.624;11.700;2023-03-23T09:58:20;24.00;40.50
63013;DHT22;62113;45.624;11.700;2023-03-23T10:03:31;24.00;39.90
63013;DHT22;62113;45.624;11.700;2023-03-23T10:05:58;24.00;39.70
63013;DHT22;62113;45.624;11.700;2023-03-23T10:08:26;23.90;39.70
63013;DHT22;62113;45.624;11.700;2023-03-23T10:11:27;24.00;39.90
63013;DHT22;62113;45.624;11.700;2023-03-23T10:16:51;24.20;39.80
63013;DHT22;62113;45.624;11.700;2023-03-23T10:21:52;24.70;39.00
63013;DHT22;62113;45.624;11.700;2023-03-23T10:24:26;24.80;38.90
63013;DHT22;62113;45.624;11.700;2023-03-23T10:29:55;24.80;37.30
63013;DHT22;62113;45.624;11.700;2023-03-23T10:35:24;24.60;37.40
63013;DHT22;62113;45.624;11.700;2023-03-23T10:38:02;24.70;37.50
63013;DHT22;62113;45.624;11.700;2023-03-23T10:40:30;24.40;37.00
63013;DHT22;62113;45.624;11.700;2023-03-23T10:42:56;24.30;36.80
63013;DHT22;62113;45.624;11.700;2023-03-23T10:45:28;24.20;36.30
63013;DHT22;62113;45.624;11.700;2023-03-23T10:48:17;24.20;37.10
63013;DHT22;62113;45.624;11.700;2023-03-23T10:50:48;24.20;37.60
63013;DHT22;62113;45.624;11.700;2023-03-23T10:53:21;24.20;37.40
63013;DHT22;62113;45.624;11.700;2023-03-23T10:55:49;24.10;37.10
63013;DHT22;62113;45.624;11.700;2023-03-23T10:58:29;24.10;37.30
63013;DHT22;62113;45.624;11.700;2023-03-23T11:00:55;24.00;38.00
63013;DHT22;62113;45.624;11.700;2023-03-23T11:03:25;23.80;37.90
63013;DHT22;62113;45.624;11.700;2023-03-23T11:06:00;23.70;37.70
63013;DHT22;62113;45.624;11.700;2023-03-23T11:08:31;23.60;38.10
63013;DHT22;62113;45.624;11.700;2023-03-23T11:13:44;23.50;39.20
63013;DHT22;62113;45.624;11.700;2023-03-23T11:16:21;23.50;39.00
63013;DHT22;62113;45.624;11.700;2023-03-23T11:18:47;23.60;38.10
63013;DHT22;62113;45.624;11.700;2023-03-23T11:21:14;23.60;37.60
63013;DHT22;62113;45.624;11.700;2023-03-23T11:23:48;23.50;37.50
63013;DHT22;62113;45.624;11.700;2023-03-23T11:26:22;23.50;37.80
63013;DHT22;62113;45.624;11.700;2023-03-23T11:28:51;23.50;38.20
63013;DHT22;62113;45.624;11.700;2023-03-23T11:31:23;23.50;37.80
63013;DHT22;62113;45.624;11.700;2023-03-23T11:33:57;23.50;37.50
63013;DHT22;62113;45.624;11.700;2023-03-23T11:36:42;23.40;37.90
63013;DHT22;62113;45.624;11.700;2023-03-23T11:39:31;23.30;38.70
63013;DHT22;62113;45.624;11.700;2023-03-23T11:41:59;23.30;38.70
63013;DHT22;62113;45.624;11.700;2023-03-23T11:44:33;23.20;38.90
63013;DHT22;62113;45.624;11.700;2023-03-23T11:58:17;23.00;39.30
63013;DHT22;62113;45.624;11.700;2023-03-23T12:00:56;23.10;39.00
63013;DHT22;62113;45.624;11.700;2023-03-23T12:06:40;23.40;39.30
63013;DHT22;62113;45.624;11.700;2023-03-23T12:14:43;23.10;40.20
63013;DHT22;62113;45.624;11.700;2023-03-23T12:17:33;23.00;39.60
63013;DHT22;62113;45.624;11.700;2023-03-23T12:22:55;23.10;39.80
63013;DHT22;62113;45.624;11.700;2023-03-23T12:25:34;23.20;40.00
63013;DHT22;62113;45.624;11.700;2023-03-23T12:31:09;23.40;39.90
63013;DHT22;62113;45.624;11.700;2023-03-23T12:39:32;23.40;39.50
63013;DHT22;62113;45.624;11.700;2023-03-23T12:42:06;23.50;39.50
63013;DHT22;62113;45.624;11.700;2023-03-23T12:45:06;23.40;40.20
63013;DHT22;62113;45.624;11.700;2023-03-23T12:47:43;23.40;40.90
63013;DHT22;62113;45.624;11.700;2023-03-23T12:50:30;23.40;40.90
63013;DHT22;62113;45.624;11.700;2023-03-23T12:53:14;23.30;41.60
63013;DHT22;62113;45.624;11.700;2023-03-23T12:55:52;23.30;41.50
63013;DHT22;62113;45.624;11.700;2023-03-23T12:58:23;23.30;41.60
63013;DHT22;62113;45.624;11.700;2023-03-23T13:01:10;23.40;41.20
63013;DHT22;62113;45.624;11.700;2023-03-23T13:03:56;23.40;40.90
63013;DHT22;62113;45.624;11.700;2023-03-23T13:06:35;23.30;40.70
63013;DHT22;62113;45.624;11.700;2023-03-23T13:11:41;23.20;41.10
63013;DHT22;62113;45.624;11.700;2023-03-23T13:17:45;23.20;41.40
63013;DHT22;62113;45.624;11.700;2023-03-23T13:20:33;23.20;41.50
63013;DHT22;62113;45.624;11.700;2023-03-23T13:23:11;23.10;41.30
63013;DHT22;62113;45.624;11.700;2023-03-23T13:28:28;23.20;41.40
63013;DHT22;62113;45.624;11.700;2023-03-23T13:30:59;23.20;41.40
63013;DHT22;62113;45.624;11.700;2023-03-23T13:33:28;23.30;41.30
63013;DHT22;62113;45.624;11.700;2023-03-23T13:35:54;23.30;41.40
63013;DHT22;62113;45.624;11.700;2023-03-23T13:38:24;23.40;41.60
63013;DHT22;62113;45.624;11.700;2023-03-23T13:40:51;23.40;42.00
63013;DHT22;62113;45.624;11.700;2023-03-23T13:43:31;23.30;41.50
63013;DHT22;62113;45.624;11.700;2023-03-23T13:46:25;23.30;41.50
63013;DHT22;62113;45.624;11.700;2023-03-23T13:56:48;23.40;41.40
63013;DHT22;62113;45.624;11.700;2023-03-23T14:01:55;23.40;41.70
63013;DHT22;62113;45.624;11.700;2023-03-23T14:04:23;23.30;41.40
63013;DHT22;62113;45.624;11.700;2023-03-23T14:06:57;23.30;41.40
63013;DHT22;62113;45.624;11.700;2023-03-23T14:09:25;23.40;41.60
63013;DHT22;62113;45.624;11.700;2023-03-23T14:11:57;23.50;41.70
63013;DHT22;62113;45.624;11.700;2023-03-23T14:14:31;23.50;41.40
63013;DHT22;62113;45.624;11.700;2023-03-23T14:19:41;23.50;41.90
63013;DHT22;62113;45.624;11.700;2023-03-23T14:22:23;23.50;41.40
63013;DHT22;62113;45.624;11.700;2023-03-23T14:24:50;23.50;41.20
63013;DHT22;62113;45.624;11.700;2023-03-23T14:27:21;23.50;40.90
63013;DHT22;62113;45.624;11.700;2023-03-23T14:30:02;23.50;41.20
63013;DHT22;62113;45.624;11.700;2023-03-23T14:32:29;23.60;40.60
63013;DHT22;62113;45.624;11.700;2023-03-23T14:34:56;23.60;40.90
63013;DHT22;62113;45.624;11.700;2023-03-23T14:37:23;23.60;40.90
63013;DHT22;62113;45.624;11.700;2023-03-23T14:39:51;23.60;40.80
63013;DHT22;62113;45.624;11.700;2023-03-23T14:42:20;23.60;40.80
63013;DHT22;62113;45.624;11.700;2023-03-23T14:44:49;23.50;40.70
63013;DHT22;62113;45.624;11.700;2023-03-23T14:49:59;23.30;41.50
63013;DHT22;62113;45.624;11.700;2023-03-23T14:52:33;23.40;41.70
63013;DHT22;62113;45.624;11.700;2023-03-23T14:55:12;23.40;41.60
63013;DHT22;62113;45.624;11.700;2023-03-23T14:57:40;23.40;41.80
63013;DHT22;62113;45.624;11.700;2023-03-23T15:00:21;23.40;41.30
63013;DHT22;62113;45.624;11.700;2023-03-23T15:02:51;23.30;41.10
63013;DHT22;62113;45.624;11.700;2023-03-23T15:05:27;23.30;41.40
63013;DHT22;62113;45.624;11.700;2023-03-23T15:07:59;23.30;41.90
63013;DHT22;62113;45.624;11.700;2023-03-23T15:10:25;23.20;42.20
63013;DHT22;62113;45.624;11.700;2023-03-23T15:12:51;23.20;41.90
63013;DHT22;62113;45.624;11.700;2023-03-23T15:17:51;23.00;42.20
63013;DHT22;62113;45.624;11.700;2023-03-23T15:22:57;23.00;42.50
63013;DHT22;62113;45.624;11.700;2023-03-23T15:25:32;22.90;42.50
63013;DHT22;62113;45.624;11.700;2023-03-23T15:28:14;22.80;42.60
63013;DHT22;62113;45.624;11.700;2023-03-23T15:30:49;22.80;42.90
63013;DHT22;62113;45.624;11.700;2023-03-23T15:33:15;22.80;42.60
63013;DHT22;62113;45.624;11.700;2023-03-23T15:35:48;22.80;42.70
63013;DHT22;62113;45.624;11.700;2023-03-23T15:38:20;22.70;42.70
63013;DHT22;62113;45.624;11.700;2023-03-23T15:40:50;22.70;42.70
63013;DHT22;62113;45.624;11.700;2023-03-23T15:43:21;22.70;42.80
63013;DHT22;62113;45.624;11.700;2023-03-23T15:48:45;22.70;43.00
63013;DHT22;62113;45.624;11.700;2023-03-23T15:51:11;22.70;43.00
63013;DHT22;62113;45.624;11.700;2023-03-23T15:53:38;22.70;43.00
63013;DHT22;62113;45.624;11.700;2023-03-23T15:56:05;22.70;43.00
63013;DHT22;62113;45.624;11.700;2023-03-23T15:58:32;22.60;43.20
63013;DHT22;62113;45.624;11.700;2023-03-23T16:01:00;22.70;43.10
63013;DHT22;62113;45.624;11.700;2023-03-23T16:03:37;22.60;43.10
63013;DHT22;62113;45.624;11.700;2023-03-23T16:06:03;22.60;42.90
63013;DHT22;62113;45.624;11.700;2023-03-23T16:08:29;22.50;42.90
63013;DHT22;62113;45.624;11.700;2023-03-23T16:10:54;22.60;43.00
63013;DHT22;62113;45.624;11.700;2023-03-23T16:13:20;22.50;43.00
63013;DHT22;62113;45.624;11.700;2023-03-23T16:15:47;22.50;43.00
63013;DHT22;62113;45.624;11.700;2023-03-23T16:18:20;22.50;43.10
63013;DHT22;62113;45.624;11.700;2023-03-23T16:20:49;22.40;43.10
63013;DHT22;62113;45.624;11.700;2023-03-23T16:23:15;22.40;43.20
63013;DHT22;62113;45.624;11.700;2023-03-23T16:25:41;22.40;43.20
63013;DHT22;62113;45.624;11.700;2023-03-23T16:28:13;22.40;43.10
63013;DHT22;62113;45.624;11.700;2023-03-23T16:30:41;22.30;45.20
63013;DHT22;62113;45.624;11.700;2023-03-23T16:33:07;22.20;45.60
63013;DHT22;62113;45.624;11.700;2023-03-23T16:35:34;22.20;46.30
63013;DHT22;62113;45.624;11.700;2023-03-23T16:37:59;22.10;46.70
63013;DHT22;62113;45.624;11.700;2023-03-23T16:40:25;22.00;46.50
63013;DHT22;62113;45.624;11.700;2023-03-23T16:42:52;21.90;46.90
63013;DHT22;62113;45.624;11.700;2023-03-23T16:45:18;21.90;47.00
63013;DHT22;62113;45.624;11.700;2023-03-23T16:47:44;21.80;47.30
63013;DHT22;62113;45.624;11.700;2023-03-23T16:50:15;21.70;47.40
63013;DHT22;62113;45.624;11.700;2023-03-23T16:52:43;21.70;47.40
63013;DHT22;62113;45.624;11.700;2023-03-23T16:55:10;21.70;48.00
63013;DHT22;62113;45.624;11.700;2023-03-23T16:57:37;21.60;48.30
63013;DHT22;62113;45.624;11.700;2023-03-23T17:00:05;21.50;48.20
63013;DHT22;62113;45.624;11.700;2023-03-23T17:02:33;21.50;48.40
63013;DHT22;62113;45.624;11.700;2023-03-23T17:04:59;21.40;48.40
63013;DHT22;62113;45.624;11.700;2023-03-23T17:07:26;21.30;49.00
63013;DHT22;62113;45.624;11.700;2023-03-23T17:09:51;21.30;48.90
63013;DHT22;62113;45.624;11.700;2023-03-23T17:12:17;21.20;49.10
63013;DHT22;62113;45.624;11.700;2023-03-23T17:14:43;21.20;49.10
63013;DHT22;62113;45.624;11.700;2023-03-23T17:17:08;21.10;49.30